createdAt,value
2023-05-02T00:01:20.533Z,83.40
2023-05-02T00:03:47.556Z,83.30
2023-05-02T00:06:14.534Z,83.50
2023-05-02T00:08:41.523Z,83.50
2023-05-02T00:11:08.508Z,84.30
2023-05-02T00:13:35.268Z,83.80
2023-05-02T00:16:01.995Z,83.90
2023-05-02T00:18:28.777Z,83.90
2023-05-02T00:20:56.711Z,84.00
2023-05-02T00:23:23.995Z,84.50
2023-05-02T00:25:50.922Z,84.60
2023-05-02T00:28:18.171Z,84.90
2023-05-02T00:30:45.929Z,85.20
2023-05-02T00:33:14.808Z,85.40
2023-05-02T00:35:41.890Z,85.60
2023-05-02T00:38:08.978Z,85.70
2023-05-02T00:40:54.084Z,85.90
2023-05-02T00:43:21.278Z,87.50
2023-05-02T00:45:48.707Z,86.30
2023-05-02T00:48:17.421Z,87.00
2023-05-02T00:50:44.170Z,86.90
2023-05-02T00:53:11.196Z,87.00
2023-05-02T00:55:38.592Z,87.20
2023-05-02T00:58:10.092Z,87.50
2023-05-02T01:00:54.914Z,88.00
2023-05-02T01:03:38.859Z,88.60
2023-05-02T01:06:11.577Z,89.10
2023-05-02T01:08:46.557Z,88.20
2023-05-02T01:11:23.527Z,89.10
2023-05-02T01:13:53.085Z,89.70
2023-05-02T01:16:21.457Z,89.70
2023-05-02T01:18:49.982Z,89.60
2023-05-02T01:21:16.748Z,89.80
2023-05-02T01:24:05.241Z,89.80
2023-05-02T01:26:48.229Z,90.60
2023-05-02T01:29:15.878Z,90.30
2023-05-02T01:31:46.608Z,90.10
2023-05-02T01:34:13.388Z,90.30
2023-05-02T01:36:46.653Z,90.20
2023-05-02T01:39:16.971Z,90.70
2023-05-02T01:41:44.636Z,90.60
2023-05-02T01:44:12.631Z,90.60
2023-05-02T01:46:43.731Z,90.60
2023-05-02T01:49:11.512Z,90.90
2023-05-02T01:51:47.931Z,90.70
2023-05-02T01:54:17.172Z,91.30
2023-05-02T01:56:45.576Z,91.00
2023-05-02T01:59:18.357Z,91.00
2023-05-02T02:01:46.029Z,91.20
2023-05-02T02:04:14.888Z,91.10
2023-05-02T02:06:47.197Z,91.20
2023-05-02T02:09:14.576Z,91.40
2023-05-02T02:11:57.525Z,91.20
2023-05-02T02:14:26.609Z,91.70
2023-05-02T02:16:56.442Z,91.40
2023-05-02T02:19:24.167Z,91.50
2023-05-02T02:21:53.293Z,91.40
2023-05-02T02:24:22.717Z,91.60
2023-05-02T02:26:49.627Z,91.60
2023-05-02T02:29:16.412Z,91.50
2023-05-02T02:31:43.304Z,91.50
2023-05-02T02:34:10.263Z,91.60
2023-05-02T02:36:44.891Z,91.60
2023-05-02T02:39:36.868Z,91.60
2023-05-02T02:42:13.473Z,92.20
2023-05-02T02:44:56.471Z,92.00
2023-05-02T02:47:29.025Z,92.50
2023-05-02T02:50:02.080Z,92.00
2023-05-02T02:52:37.207Z,92.20
2023-05-02T02:55:12.967Z,92.50
2023-05-02T02:57:44.826Z,92.40
2023-05-02T03:00:21.160Z,92.10
2023-05-02T03:02:48.676Z,92.60
2023-05-02T03:05:16.322Z,92.30
2023-05-02T03:07:43.228Z,92.40
2023-05-02T03:10:11.755Z,92.50
2023-05-02T03:12:42.246Z,92.60
2023-05-02T03:15:28.507Z,92.70
2023-05-02T03:17:55.548Z,93.30
2023-05-02T03:20:22.205Z,92.80
2023-05-02T03:22:48.937Z,93.00
2023-05-02T03:25:15.625Z,93.00
2023-05-02T03:27:46.540Z,93.10
2023-05-02T03:30:13.920Z,93.20
2023-05-02T03:32:40.583Z,93.30
2023-05-02T03:35:07.541Z,93.30
2023-05-02T03:37:39.209Z,93.30
2023-05-02T03:40:06.755Z,93.30
2023-05-02T03:42:39.871Z,93.30
2023-05-02T03:45:10.515Z,93.50
2023-05-02T03:47:37.398Z,93.30
2023-05-02T03:50:04.288Z,93.30
2023-05-02T03:52:33.969Z,93.50
2023-05-02T03:55:02.035Z,93.60
2023-05-02T03:57:32.836Z,93.60
2023-05-02T04:00:00.669Z,93.80
2023-05-02T04:02:38.527Z,93.50
2023-05-02T04:05:09.550Z,93.60
2023-05-02T04:07:37.172Z,93.60
2023-05-02T04:10:07.416Z,93.60
2023-05-02T04:12:39.276Z,93.70
2023-05-02T04:15:06.975Z,93.70
2023-05-02T04:17:34.028Z,93.80
2023-05-02T04:20:04.058Z,93.70
2023-05-02T04:22:34.367Z,93.60
2023-05-02T04:25:04.740Z,93.60
2023-05-02T04:27:33.797Z,93.60
2023-05-02T04:30:01.390Z,93.50
2023-05-02T04:32:28.536Z,93.50
2023-05-02T04:34:56.442Z,93.40
2023-05-02T04:37:23.788Z,93.30
2023-05-02T04:39:50.924Z,93.30
2023-05-02T04:42:21.261Z,93.30
2023-05-02T04:45:07.037Z,93.40
2023-05-02T04:47:33.767Z,93.40
2023-05-02T04:50:01.140Z,93.40
2023-05-02T04:52:29.839Z,93.50
2023-05-02T04:54:57.032Z,93.50
2023-05-02T04:57:23.885Z,93.50
2023-05-02T04:59:55.102Z,93.50
2023-05-02T05:02:21.896Z,93.50
2023-05-02T05:04:49.077Z,93.50
2023-05-02T05:07:16.703Z,93.50
2023-05-02T05:09:45.858Z,93.40
2023-05-02T05:12:12.701Z,93.30
2023-05-02T05:14:39.372Z,93.20
2023-05-02T05:17:06.152Z,93.20
2023-05-02T05:19:33.129Z,93.20
2023-05-02T05:21:59.808Z,93.10
2023-05-02T05:24:26.751Z,93.20
2023-05-02T05:26:55.672Z,93.20
2023-05-02T05:29:22.829Z,93.10
2023-05-02T05:31:49.682Z,93.00
2023-05-02T05:34:18.774Z,93.10
2023-05-02T05:36:46.900Z,93.00
2023-05-02T05:39:13.724Z,92.90
2023-05-02T05:41:43.148Z,92.90
2023-05-02T05:44:11.649Z,92.90
2023-05-02T05:46:39.022Z,92.80
2023-05-02T05:49:07.344Z,92.70
2023-05-02T05:51:35.703Z,92.60
2023-05-02T05:54:02.410Z,92.60
2023-05-02T05:56:29.656Z,92.40
2023-05-02T05:59:05.322Z,92.30
2023-05-02T06:01:32.270Z,92.10
2023-05-02T06:03:59.109Z,92.00
2023-05-02T06:06:27.362Z,91.90
2023-05-02T06:08:54.377Z,91.80
2023-05-02T06:11:21.105Z,91.80
2023-05-02T06:13:47.815Z,91.70
2023-05-02T06:16:14.763Z,91.50
2023-05-02T06:18:41.525Z,91.30
2023-05-02T06:21:08.158Z,91.10
2023-05-02T06:23:35.854Z,91.10
2023-05-02T06:26:04.032Z,91.20
2023-05-02T06:28:31.400Z,91.20
2023-05-02T06:31:05.924Z,91.10
2023-05-02T06:33:33.749Z,91.10
2023-05-02T06:36:01.981Z,91.00
2023-05-02T06:38:29.740Z,91.20
2023-05-02T06:40:56.541Z,91.40
2023-05-02T06:43:23.293Z,91.70
2023-05-02T06:45:53.977Z,91.90
2023-05-02T06:48:21.603Z,92.10
2023-05-02T06:50:49.039Z,92.20
2023-05-02T06:53:15.714Z,92.50
2023-05-02T06:55:42.494Z,92.60
2023-05-02T06:58:09.220Z,92.60
2023-05-02T07:00:35.929Z,92.60
2023-05-02T07:03:02.737Z,92.70
2023-05-02T07:05:30.759Z,92.50
2023-05-02T07:07:57.438Z,92.40
2023-05-02T07:10:24.118Z,92.40
2023-05-02T07:12:50.822Z,92.50
2023-05-02T07:15:17.908Z,92.50
2023-05-02T07:17:44.715Z,92.60
2023-05-02T07:20:12.334Z,92.70
2023-05-02T07:22:39.006Z,93.00
2023-05-02T07:25:06.493Z,92.60
2023-05-02T07:27:33.223Z,92.50
2023-05-02T07:30:00.097Z,92.30
2023-05-02T07:32:27.465Z,92.20
2023-05-02T07:34:54.974Z,92.20
2023-05-02T07:37:22.003Z,92.20
2023-05-02T07:39:48.779Z,92.20
2023-05-02T07:42:15.464Z,92.40
2023-05-02T07:44:42.336Z,92.30
2023-05-02T07:47:09.744Z,92.10
2023-05-02T07:49:36.869Z,92.00
2023-05-02T07:52:04.308Z,92.00
2023-05-02T07:54:31.109Z,92.00
2023-05-02T07:57:02.127Z,91.90
2023-05-02T07:59:31.035Z,91.70
2023-05-02T08:01:57.956Z,91.50
2023-05-02T08:04:25.053Z,91.40
2023-05-02T08:06:52.145Z,91.50
2023-05-02T08:09:18.963Z,91.60
2023-05-02T08:11:45.741Z,91.50
2023-05-02T08:14:12.758Z,91.60
2023-05-02T08:16:39.622Z,91.60
2023-05-02T08:19:06.317Z,91.50
2023-05-02T08:21:33.158Z,91.50
2023-05-02T08:24:00.486Z,91.60
2023-05-02T08:26:27.993Z,92.00
2023-05-02T08:28:55.008Z,92.20
2023-05-02T08:31:21.784Z,92.50
2023-05-02T08:33:48.563Z,92.10
2023-05-02T08:36:16.927Z,91.90
2023-05-02T08:38:44.804Z,91.40
2023-05-02T08:41:20.234Z,91.20
2023-05-02T08:43:47.431Z,90.60
2023-05-02T08:46:16.178Z,90.20
2023-05-02T08:48:45.703Z,90.10
2023-05-02T08:51:14.744Z,90.10
2023-05-02T08:53:42.221Z,89.30
2023-05-02T08:56:10.799Z,89.30
2023-05-02T08:58:39.598Z,89.40
2023-05-02T09:01:28.633Z,88.90
2023-05-02T09:03:58.285Z,87.90
2023-05-02T09:06:27.316Z,88.10
2023-05-02T09:08:54.023Z,84.40
2023-05-02T09:11:21.581Z,84.80
2023-05-02T09:13:51.610Z,84.50
2023-05-02T09:16:22.644Z,82.80
2023-05-02T09:18:54.838Z,80.90
2023-05-02T09:21:27.247Z,80.50
2023-05-02T09:23:55.729Z,80.90
2023-05-02T09:26:23.360Z,80.30
2023-05-02T09:28:54.876Z,80.10
2023-05-02T09:31:55.711Z,78.70
2023-05-02T09:34:23.741Z,77.90
2023-05-02T09:36:53.917Z,79.00
2023-05-02T09:39:26.025Z,76.80
2023-05-02T09:41:53.213Z,75.00
2023-05-02T09:44:36.002Z,74.00
2023-05-02T09:47:02.860Z,73.00
2023-05-02T09:49:46.705Z,72.50
2023-05-02T09:52:18.394Z,71.10
2023-05-02T09:54:52.109Z,71.30
2023-05-02T09:57:19.615Z,71.00
2023-05-02T09:59:57.392Z,70.60
2023-05-02T10:02:25.595Z,69.10
2023-05-02T10:04:56.792Z,69.90
2023-05-02T10:07:24.726Z,68.90
2023-05-02T10:09:54.436Z,68.30
2023-05-02T10:12:25.779Z,67.80
2023-05-02T10:15:00.179Z,67.70
2023-05-02T10:17:42.272Z,66.10
2023-05-02T10:20:11.175Z,65.10
2023-05-02T10:22:38.675Z,66.90
2023-05-02T10:25:06.572Z,66.50
2023-05-02T10:27:33.730Z,66.60
2023-05-02T10:30:02.219Z,66.60
2023-05-02T10:32:29.782Z,66.50
2023-05-02T10:35:04.656Z,66.00
2023-05-02T10:37:33.897Z,64.80
2023-05-02T10:40:01.346Z,65.50
2023-05-02T10:42:29.659Z,65.80
2023-05-02T10:44:56.869Z,64.70
2023-05-02T10:47:25.369Z,64.90
2023-05-02T10:50:03.336Z,65.80
2023-05-02T10:52:30.127Z,63.90
2023-05-02T10:55:17.815Z,64.40
2023-05-02T10:57:59.861Z,62.80
2023-05-02T11:00:29.442Z,63.00
2023-05-02T11:02:56.444Z,64.60
2023-05-02T11:05:24.623Z,65.90
2023-05-02T11:08:19.440Z,64.60
2023-05-02T11:10:47.919Z,63.40
2023-05-02T11:13:14.715Z,63.90
2023-05-02T11:15:41.394Z,63.30
2023-05-02T11:18:09.043Z,62.70
2023-05-02T11:20:37.207Z,62.00
2023-05-02T11:23:16.425Z,62.30
2023-05-02T11:25:45.447Z,61.50
2023-05-02T11:28:37.020Z,62.60
2023-05-02T11:31:08.311Z,61.30
2023-05-02T11:33:35.046Z,61.50
2023-05-02T11:36:01.833Z,62.10
2023-05-02T11:38:38.721Z,62.00
2023-05-02T11:41:05.691Z,60.60
2023-05-02T11:43:32.919Z,61.60
2023-05-02T11:46:01.396Z,61.00
2023-05-02T11:48:28.496Z,60.80
2023-05-02T11:51:03.394Z,60.00
2023-05-02T11:53:31.510Z,59.40
2023-05-02T11:56:03.322Z,59.30
2023-05-02T11:58:34.711Z,59.00
2023-05-02T12:01:13.333Z,59.80
2023-05-02T12:03:40.831Z,59.00
2023-05-02T12:06:13.415Z,60.00
2023-05-02T12:08:42.431Z,59.40
2023-05-02T12:11:09.486Z,59.50
2023-05-02T12:13:48.191Z,59.60
2023-05-02T12:16:15.845Z,59.00
2023-05-02T12:18:42.915Z,59.40
2023-05-02T12:21:09.894Z,59.20
2023-05-02T12:23:37.598Z,59.10
2023-05-02T12:26:37.203Z,59.30
2023-05-02T12:29:06.504Z,58.00
2023-05-02T12:31:33.406Z,59.00
2023-05-02T12:34:01.112Z,59.20
2023-05-02T12:36:28.632Z,59.10
2023-05-02T12:38:59.177Z,58.90
2023-05-02T12:41:33.923Z,58.70
2023-05-02T12:44:01.434Z,58.20
2023-05-02T12:46:31.768Z,58.20
2023-05-02T12:49:11.790Z,58.30
2023-05-02T12:51:39.725Z,58.20
2023-05-02T12:54:06.986Z,58.70
2023-05-02T12:56:44.038Z,58.60
2023-05-02T12:59:29.396Z,58.10
2023-05-02T13:01:56.548Z,57.50
2023-05-02T13:04:37.182Z,58.20
2023-05-02T13:07:03.850Z,57.30
2023-05-02T13:09:30.553Z,57.90
2023-05-02T13:11:58.806Z,57.90
2023-05-02T13:14:25.928Z,57.90
2023-05-02T13:16:53.511Z,57.90
2023-05-02T13:19:20.693Z,57.90
2023-05-02T13:21:47.763Z,57.50
2023-05-02T13:24:17.810Z,57.10
2023-05-02T13:26:44.534Z,56.40
2023-05-02T13:29:11.628Z,56.40
2023-05-02T13:31:38.946Z,56.70
2023-05-02T13:34:05.941Z,57.10
2023-05-02T13:36:32.711Z,57.70
2023-05-02T13:38:59.911Z,57.80
2023-05-02T13:41:26.548Z,57.70
2023-05-02T13:43:53.866Z,57.70
2023-05-02T13:46:20.734Z,57.30
2023-05-02T13:48:47.416Z,57.20
2023-05-02T13:51:14.050Z,56.90
2023-05-02T13:53:40.708Z,56.60
2023-05-02T13:56:07.466Z,56.10
2023-05-02T13:58:34.095Z,56.30
2023-05-02T14:01:01.065Z,56.30
2023-05-02T14:03:27.862Z,56.00
2023-05-02T14:05:54.621Z,55.60
2023-05-02T14:08:21.335Z,55.60
2023-05-02T14:10:47.993Z,56.00
2023-05-02T14:13:14.713Z,56.10
2023-05-02T14:15:41.426Z,56.00
2023-05-02T14:18:08.159Z,55.90
2023-05-02T14:20:34.894Z,55.50
2023-05-02T14:23:01.748Z,55.80
2023-05-02T14:25:28.523Z,56.10
2023-05-02T14:27:55.246Z,56.00
2023-05-02T14:30:21.989Z,55.80
2023-05-02T14:32:48.666Z,56.50
2023-05-02T14:35:15.367Z,55.70
2023-05-02T14:37:44.950Z,55.60
2023-05-02T14:40:12.259Z,55.70
2023-05-02T14:42:38.935Z,56.00
2023-05-02T14:45:06.515Z,55.90
2023-05-02T14:47:33.250Z,55.90
2023-05-02T14:50:00.888Z,55.80
2023-05-02T14:52:27.736Z,55.90
2023-05-02T14:54:54.538Z,56.10
2023-05-02T14:57:21.368Z,56.30
2023-05-02T14:59:48.168Z,56.60
2023-05-02T15:02:14.860Z,56.70
2023-05-02T15:04:41.694Z,56.50
2023-05-02T15:07:08.790Z,57.10
2023-05-02T15:09:35.679Z,56.30
2023-05-02T15:12:05.048Z,56.40
2023-05-02T15:14:31.736Z,56.50
2023-05-02T15:16:58.430Z,56.40
2023-05-02T15:19:25.280Z,56.50
2023-05-02T15:21:57.172Z,56.60
2023-05-02T15:24:27.624Z,56.40
2023-05-02T15:26:54.735Z,56.80
2023-05-02T15:29:21.434Z,56.80
2023-05-02T15:31:48.218Z,57.00
2023-05-02T15:34:15.360Z,57.00
2023-05-02T15:36:43.089Z,56.90
2023-05-02T15:39:09.798Z,57.10
2023-05-02T15:41:36.516Z,57.30
2023-05-02T15:44:03.263Z,57.30
2023-05-02T15:46:29.978Z,57.20
2023-05-02T15:48:56.745Z,57.40
2023-05-02T15:51:23.400Z,57.40
2023-05-02T15:53:52.319Z,57.30
2023-05-02T15:56:21.011Z,57.50
2023-05-02T15:58:48.239Z,57.60
2023-05-02T16:01:15.114Z,57.50
2023-05-02T16:03:42.026Z,57.10
2023-05-02T16:06:09.183Z,56.90
2023-05-02T16:08:36.262Z,56.80
2023-05-02T16:11:02.935Z,56.70
2023-05-02T16:13:29.595Z,56.70
2023-05-02T16:15:56.453Z,56.90
2023-05-02T16:18:28.009Z,56.80
2023-05-02T16:20:58.230Z,56.50
2023-05-02T16:23:25.664Z,56.10
2023-05-02T16:26:00.000Z,56.50
2023-05-02T16:28:26.728Z,56.30
2023-05-02T16:30:53.389Z,56.20
2023-05-02T16:33:21.458Z,56.10
2023-05-02T16:35:48.298Z,56.60
2023-05-02T16:38:14.998Z,56.90
2023-05-02T16:40:41.712Z,56.90
2023-05-02T16:43:08.852Z,56.90
2023-05-02T16:45:35.786Z,56.50
2023-05-02T16:48:03.293Z,56.50
2023-05-02T16:50:29.884Z,56.50
2023-05-02T16:52:56.627Z,56.20
2023-05-02T16:55:23.334Z,56.20
2023-05-02T16:57:50.035Z,55.90
2023-05-02T17:00:17.356Z,56.00
2023-05-02T17:02:44.236Z,56.10
2023-05-02T17:05:11.300Z,56.20
2023-05-02T17:07:38.264Z,56.20
2023-05-02T17:10:05.571Z,56.50
2023-05-02T17:12:32.409Z,56.20
2023-05-02T17:15:00.288Z,56.30
2023-05-02T17:17:28.167Z,56.30
2023-05-02T17:19:54.835Z,56.30
2023-05-02T17:22:21.793Z,56.30
2023-05-02T17:24:52.665Z,56.40
2023-05-02T17:27:19.677Z,57.10
2023-05-02T17:29:46.430Z,56.70
2023-05-02T17:32:15.593Z,56.70
2023-05-02T17:34:43.442Z,56.70
2023-05-02T17:37:10.489Z,56.70
2023-05-02T17:39:37.083Z,56.80
2023-05-02T17:42:03.835Z,56.80
2023-05-02T17:44:36.026Z,56.60
2023-05-02T17:47:03.578Z,56.80
2023-05-02T17:49:30.312Z,56.70
2023-05-02T17:51:57.013Z,56.70
2023-05-02T17:54:23.850Z,56.70
2023-05-02T17:56:50.657Z,56.90
2023-05-02T17:59:18.776Z,56.80
2023-05-02T18:01:45.654Z,56.90
2023-05-02T18:04:12.686Z,57.10
2023-05-02T18:06:39.752Z,57.10
2023-05-02T18:09:07.277Z,57.00
2023-05-02T18:11:39.859Z,57.20
2023-05-02T18:14:07.159Z,57.30
2023-05-02T18:16:36.014Z,57.60
2023-05-02T18:19:03.130Z,57.50
2023-05-02T18:21:32.676Z,57.30
2023-05-02T18:23:59.355Z,57.40
2023-05-02T18:26:26.318Z,57.50
2023-05-02T18:28:53.502Z,57.60
2023-05-02T18:31:20.640Z,57.80
2023-05-02T18:33:47.886Z,57.90
2023-05-02T18:36:18.989Z,57.70
2023-05-02T18:38:46.099Z,57.60
2023-05-02T18:41:12.777Z,57.50
2023-05-02T18:43:39.584Z,57.50
2023-05-02T18:46:08.055Z,57.60
2023-05-02T18:48:36.097Z,57.90
2023-05-02T18:51:02.919Z,58.00
2023-05-02T18:53:29.609Z,58.20
2023-05-02T18:55:57.654Z,58.30
2023-05-02T18:58:24.322Z,58.40
2023-05-02T19:00:51.053Z,58.40
2023-05-02T19:03:18.028Z,58.60
2023-05-02T19:05:45.492Z,58.60
2023-05-02T19:08:12.280Z,58.60
2023-05-02T19:10:39.068Z,58.70
2023-05-02T19:13:06.148Z,58.80
2023-05-02T19:15:33.886Z,58.90
2023-05-02T19:18:00.728Z,58.90
2023-05-02T19:20:29.116Z,59.00
2023-05-02T19:23:07.284Z,59.20
2023-05-02T19:25:42.369Z,59.40
2023-05-02T19:28:08.974Z,59.50
2023-05-02T19:30:36.209Z,59.60
2023-05-02T19:33:02.949Z,59.60
2023-05-02T19:35:33.787Z,59.50
2023-05-02T19:38:00.884Z,59.50
2023-05-02T19:40:27.829Z,59.50
2023-05-02T19:42:54.489Z,59.40
2023-05-02T19:45:21.330Z,59.40
2023-05-02T19:47:48.325Z,59.40
2023-05-02T19:50:15.023Z,59.50
2023-05-02T19:52:42.808Z,59.60
2023-05-02T19:55:09.847Z,59.60
2023-05-02T19:57:37.204Z,59.70
2023-05-02T20:00:04.873Z,59.70
2023-05-02T20:02:39.325Z,59.80
2023-05-02T20:05:07.155Z,59.90
2023-05-02T20:07:33.818Z,59.90
2023-05-02T20:10:00.711Z,60.00
2023-05-02T20:12:27.493Z,60.10
2023-05-02T20:14:54.799Z,60.20
2023-05-02T20:17:21.391Z,60.40
2023-05-02T20:19:48.006Z,60.70
2023-05-02T20:22:14.729Z,60.70
2023-05-02T20:24:41.406Z,61.00
2023-05-02T20:27:08.043Z,61.30
2023-05-02T20:29:34.668Z,61.40
2023-05-02T20:32:01.408Z,61.60
2023-05-02T20:34:28.200Z,61.80
2023-05-02T20:36:54.866Z,61.90
2023-05-02T20:39:21.702Z,62.10
2023-05-02T20:41:51.543Z,63.10
2023-05-02T20:44:18.612Z,62.30
2023-05-02T20:46:45.344Z,62.40
2023-05-02T20:49:12.300Z,62.70
2023-05-02T20:51:38.994Z,62.70
2023-05-02T20:54:05.905Z,62.80
2023-05-02T20:56:32.584Z,63.00
2023-05-02T20:58:59.245Z,63.20
2023-05-02T21:01:26.722Z,63.30
2023-05-02T21:03:53.661Z,63.40
2023-05-02T21:06:20.976Z,63.50
2023-05-02T21:08:48.171Z,63.60
2023-05-02T21:11:15.958Z,63.70
2023-05-02T21:13:43.382Z,63.80
2023-05-02T21:16:17.665Z,63.80
2023-05-02T21:18:45.366Z,64.00
2023-05-02T21:21:12.114Z,63.90
2023-05-02T21:23:38.958Z,63.80
2023-05-02T21:26:05.932Z,63.90
2023-05-02T21:28:32.598Z,64.00
2023-05-02T21:31:01.665Z,64.00
2023-05-02T21:33:28.373Z,64.20
2023-05-02T21:35:56.855Z,64.10
2023-05-02T21:38:24.512Z,64.20
2023-05-02T21:40:51.330Z,64.10
2023-05-02T21:43:18.175Z,64.20
2023-05-02T21:45:49.338Z,64.30
2023-05-02T21:48:16.999Z,64.30
2023-05-02T21:50:44.426Z,64.50
2023-05-02T21:53:11.636Z,64.40
2023-05-02T21:55:41.061Z,64.40
2023-05-02T21:58:09.744Z,64.60
2023-05-02T22:00:40.669Z,64.70
2023-05-02T22:03:09.799Z,65.00
2023-05-02T22:05:41.201Z,64.90
2023-05-02T22:08:09.922Z,64.90
2023-05-02T22:10:42.023Z,65.00
2023-05-02T22:13:12.160Z,65.00
2023-05-02T22:15:46.549Z,65.00
2023-05-02T22:18:17.700Z,65.10
2023-05-02T22:20:45.157Z,65.90
2023-05-02T22:23:12.432Z,65.10
2023-05-02T22:25:44.265Z,65.10
2023-05-02T22:28:12.120Z,65.30
2023-05-02T22:30:39.905Z,65.30
2023-05-02T22:33:07.391Z,65.20
2023-05-02T22:35:34.264Z,65.30
2023-05-02T22:38:02.166Z,65.30
2023-05-02T22:40:32.981Z,65.30
2023-05-02T22:43:01.029Z,65.40
2023-05-02T22:45:27.844Z,65.40
2023-05-02T22:47:54.998Z,65.50
2023-05-02T22:50:22.129Z,65.50
2023-05-02T22:52:49.133Z,65.60
2023-05-02T22:55:16.198Z,65.60
2023-05-02T22:57:42.825Z,65.70
2023-05-02T23:00:10.537Z,65.90
2023-05-02T23:02:37.874Z,65.90
2023-05-02T23:05:05.117Z,66.00
2023-05-02T23:07:31.815Z,66.10
2023-05-02T23:09:58.503Z,66.10
2023-05-02T23:12:25.207Z,66.20
2023-05-02T23:14:51.855Z,66.20
2023-05-02T23:17:18.629Z,66.30
2023-05-02T23:19:45.304Z,66.40
2023-05-02T23:22:11.931Z,66.60
2023-05-02T23:24:38.533Z,66.60
2023-05-02T23:27:06.525Z,66.70
2023-05-02T23:29:33.190Z,66.80
2023-05-02T23:31:59.936Z,66.90
2023-05-02T23:34:26.768Z,67.10
2023-05-02T23:36:53.676Z,67.10
2023-05-02T23:39:20.917Z,67.10
2023-05-02T23:41:47.695Z,67.20
2023-05-02T23:44:14.363Z,67.30
2023-05-02T23:46:41.049Z,67.30
2023-05-02T23:49:07.851Z,67.40
2023-05-02T23:51:34.572Z,67.50
2023-05-02T23:54:01.325Z,67.60
2023-05-02T23:56:30.481Z,67.70
2023-05-02T23:58:57.070Z,67.80
